createdAt,value
2023-04-15T00:02:20.201Z,3.50
2023-04-15T00:04:48.518Z,2.80
2023-04-15T00:07:16.443Z,3.20
2023-04-15T00:09:47.425Z,2.95
2023-04-15T00:12:18.166Z,3.50
2023-04-15T00:14:46.620Z,3.00
2023-04-15T00:17:15.230Z,3.30
2023-04-15T00:22:09.804Z,3.10
2023-04-15T00:24:36.995Z,3.05
2023-04-15T00:27:04.917Z,3.05
2023-04-15T00:29:31.904Z,3.47
2023-04-15T00:31:58.890Z,3.55
2023-04-15T00:34:28.048Z,3.42
2023-04-15T00:39:23.219Z,3.42
2023-04-15T00:41:50.914Z,3.22
2023-04-15T00:44:19.080Z,3.10
2023-04-15T00:49:14.332Z,2.72
2023-04-15T00:51:41.865Z,3.40
2023-04-15T00:54:10.756Z,3.60
2023-04-15T00:56:40.425Z,3.80
2023-04-15T00:59:10.027Z,3.70
2023-04-15T01:01:38.717Z,3.50
2023-04-15T01:04:13.272Z,4.47
2023-04-15T01:09:09.465Z,3.75
2023-04-15T01:14:05.919Z,3.60
2023-04-15T01:16:32.809Z,3.25
2023-04-15T01:19:03.395Z,4.05
2023-04-15T01:21:30.247Z,3.90
2023-04-15T01:23:58.464Z,4.57
2023-04-15T01:26:25.948Z,4.40
2023-04-15T01:28:52.697Z,3.90
2023-04-15T01:31:19.466Z,3.53
2023-04-15T01:33:47.870Z,4.30
2023-04-15T01:38:42.655Z,3.55
2023-04-15T01:41:09.694Z,3.50
2023-04-15T01:43:37.327Z,3.75
2023-04-15T01:46:04.508Z,3.85
2023-04-15T01:48:31.475Z,5.10
2023-04-15T01:50:59.027Z,3.85
2023-04-15T01:53:26.165Z,4.07
2023-04-15T01:55:53.268Z,3.80
2023-04-15T01:58:22.046Z,4.20
2023-04-15T02:00:50.446Z,3.90
2023-04-15T02:05:49.582Z,3.80
2023-04-15T02:08:16.654Z,3.63
2023-04-15T02:10:43.808Z,4.18
2023-04-15T02:13:11.032Z,3.67
2023-04-15T02:15:37.772Z,3.47
2023-04-15T02:18:05.463Z,4.25
2023-04-15T02:20:32.286Z,5.38
2023-04-15T02:22:58.946Z,3.97
2023-04-15T02:25:26.120Z,3.78
2023-04-15T02:27:53.947Z,3.58
2023-04-15T02:30:21.456Z,4.03
2023-04-15T02:32:48.615Z,3.55
2023-04-15T02:35:19.856Z,3.72
2023-04-15T02:37:46.738Z,3.47
2023-04-15T02:40:13.628Z,3.92
2023-04-15T02:42:41.216Z,4.47
2023-04-15T02:45:12.588Z,3.88
2023-04-15T02:47:43.377Z,3.97
2023-04-15T02:50:13.212Z,4.03
2023-04-15T02:52:42.442Z,4.13
2023-04-15T02:55:12.766Z,4.10
2023-04-15T02:57:42.351Z,3.92
2023-04-15T03:00:12.829Z,4.20
2023-04-15T03:02:44.197Z,4.43
2023-04-15T03:05:14.811Z,3.63
2023-04-15T03:07:42.857Z,4.28
2023-04-15T03:10:10.605Z,4.43
2023-04-15T03:12:37.777Z,4.47
2023-04-15T03:15:05.891Z,4.55
2023-04-15T03:17:32.511Z,4.50
2023-04-15T03:19:59.766Z,3.33
2023-04-15T03:22:27.076Z,4.20
2023-04-15T03:24:53.921Z,4.50
2023-04-15T03:27:21.052Z,5.03
2023-04-15T03:29:52.124Z,4.45
2023-04-15T03:32:19.337Z,4.53
2023-04-15T03:34:46.461Z,4.47
2023-04-15T03:37:13.203Z,4.35
2023-04-15T03:39:40.379Z,4.88
2023-04-15T03:42:07.517Z,4.68
2023-04-15T03:44:35.795Z,3.97
2023-04-15T03:47:02.982Z,3.97
2023-04-15T03:49:29.737Z,4.72
2023-04-15T03:51:57.219Z,4.38
2023-04-15T03:54:24.024Z,4.43
2023-04-15T03:56:50.788Z,4.22
2023-04-15T03:59:17.548Z,5.38
2023-04-15T04:01:44.298Z,4.72
2023-04-15T04:04:11.473Z,4.85
2023-04-15T04:06:38.788Z,4.85
2023-04-15T04:09:07.160Z,4.07
2023-04-15T04:11:34.972Z,5.22
2023-04-15T04:14:04.454Z,4.60
2023-04-15T04:16:31.464Z,4.95
2023-04-15T04:18:59.625Z,4.75
2023-04-15T04:21:26.971Z,4.85
2023-04-15T04:23:56.828Z,5.53
2023-04-15T04:26:23.718Z,5.07
2023-04-15T04:28:51.640Z,4.25
2023-04-15T04:31:19.883Z,5.53
2023-04-15T04:33:46.861Z,5.13
2023-04-15T04:36:13.674Z,5.13
2023-04-15T04:38:42.261Z,5.90
2023-04-15T04:41:09.285Z,5.85
2023-04-15T04:43:37.583Z,5.22
2023-04-15T04:46:09.143Z,6.22
2023-04-15T04:48:36.954Z,5.70
2023-04-15T04:51:03.889Z,5.53
2023-04-15T04:53:32.684Z,5.85
2023-04-15T04:55:59.782Z,6.22
2023-04-15T04:58:29.364Z,6.13
2023-04-15T05:00:57.258Z,6.20
2023-04-15T05:03:24.455Z,6.28
2023-04-15T05:05:51.900Z,6.15
2023-04-15T05:08:20.074Z,6.50
2023-04-15T05:10:48.549Z,5.60
2023-04-15T05:13:15.167Z,7.07
2023-04-15T05:15:43.883Z,6.57
2023-04-15T05:18:10.635Z,6.07
2023-04-15T05:20:41.241Z,6.57
2023-04-15T05:23:08.248Z,6.00
2023-04-15T05:25:35.802Z,7.18
2023-04-15T05:28:02.436Z,7.32
2023-04-15T05:30:29.414Z,6.75
2023-04-15T05:33:30.232Z,7.38
2023-04-15T05:36:17.935Z,7.18
2023-04-15T05:38:45.182Z,7.30
2023-04-15T05:41:18.485Z,8.35
2023-04-15T05:46:13.525Z,7.65
2023-04-15T05:48:41.030Z,7.20
2023-04-15T05:51:08.266Z,7.38
2023-04-15T05:53:35.488Z,7.78
2023-04-15T05:56:02.579Z,7.15
2023-04-15T05:58:29.374Z,6.85
2023-04-15T06:00:57.029Z,6.75
2023-04-15T06:03:25.669Z,8.30
2023-04-15T06:05:52.511Z,8.55
2023-04-15T06:08:30.443Z,7.97
2023-04-15T06:10:58.859Z,7.68
2023-04-15T06:15:52.298Z,6.32
2023-04-15T06:18:20.303Z,7.45
2023-04-15T06:20:47.061Z,8.13
2023-04-15T06:23:13.626Z,7.07
2023-04-15T06:25:40.173Z,7.22
2023-04-15T06:28:07.030Z,7.28
2023-04-15T06:30:33.649Z,6.80
2023-04-15T06:33:00.232Z,7.25
2023-04-15T06:35:29.930Z,6.43
2023-04-15T06:37:56.808Z,5.78
2023-04-15T06:40:23.663Z,5.55
2023-04-15T06:42:50.629Z,5.80
2023-04-15T06:45:17.836Z,6.20
2023-04-15T06:47:44.407Z,5.65
2023-04-15T06:50:11.815Z,6.03
2023-04-15T06:52:38.478Z,6.68
2023-04-15T06:55:05.701Z,5.95
2023-04-15T06:57:34.859Z,5.75
2023-04-15T07:00:01.900Z,6.18
2023-04-15T07:02:28.691Z,6.30
2023-04-15T07:04:56.980Z,5.88
2023-04-15T07:07:23.626Z,5.82
2023-04-15T07:09:58.078Z,6.22
2023-04-15T07:14:52.249Z,5.45
2023-04-15T07:17:20.011Z,5.80
2023-04-15T07:19:46.663Z,5.82
2023-04-15T07:22:13.265Z,5.03
2023-04-15T07:24:39.810Z,5.15
2023-04-15T07:27:06.826Z,5.32
2023-04-15T07:29:33.286Z,5.68
2023-04-15T07:31:59.938Z,6.40
2023-04-15T07:34:27.951Z,6.35
2023-04-15T07:36:56.096Z,5.43
2023-04-15T07:39:23.340Z,5.13
2023-04-15T07:41:50.404Z,5.00
2023-04-15T07:44:17.361Z,4.88
2023-04-15T07:46:44.124Z,5.03
2023-04-15T07:49:11.052Z,6.18
2023-04-15T07:51:38.443Z,6.97
2023-04-15T07:54:05.063Z,6.55
2023-04-15T07:56:32.716Z,7.10
2023-04-15T07:59:02.474Z,7.15
2023-04-15T08:01:29.240Z,6.32
2023-04-15T08:03:55.947Z,5.85
2023-04-15T08:06:27.318Z,7.50
2023-04-15T08:08:55.086Z,7.53
2023-04-15T08:11:24.685Z,7.97
2023-04-15T08:13:52.566Z,7.22
2023-04-15T08:16:25.213Z,6.43
2023-04-15T08:18:55.424Z,5.93
2023-04-15T08:21:22.777Z,5.35
2023-04-15T08:23:51.928Z,4.53
2023-04-15T08:26:21.603Z,3.92
2023-04-15T08:28:49.233Z,4.53
2023-04-15T08:31:18.998Z,3.78
2023-04-15T08:33:46.940Z,4.05
2023-04-15T08:36:15.022Z,3.83
2023-04-15T08:38:41.937Z,4.18
2023-04-15T08:41:23.935Z,3.97
2023-04-15T08:44:05.785Z,4.13
2023-04-15T08:46:34.913Z,4.60
2023-04-15T08:49:05.922Z,4.28
2023-04-15T08:51:33.963Z,3.40
2023-04-15T08:54:01.834Z,4.20
2023-04-15T08:56:33.342Z,4.68
2023-04-15T08:59:00.910Z,4.40
2023-04-15T09:01:28.254Z,4.00
2023-04-15T09:03:57.187Z,4.30
2023-04-15T09:06:27.336Z,3.95
2023-04-15T09:08:54.159Z,3.10
2023-04-15T09:11:27.644Z,4.55
2023-04-15T09:13:54.559Z,3.63
2023-04-15T09:16:21.385Z,4.40
2023-04-15T09:18:48.285Z,3.45
2023-04-15T09:21:17.832Z,4.07
2023-04-15T09:23:58.717Z,3.65
2023-04-15T09:26:40.318Z,3.22
2023-04-15T09:29:09.486Z,4.18
2023-04-15T09:31:39.895Z,4.03
2023-04-15T09:34:07.393Z,4.68
2023-04-15T09:36:53.017Z,3.60
2023-04-15T09:39:20.034Z,3.75
2023-04-15T09:42:03.839Z,3.90
2023-04-15T09:44:30.867Z,3.92
2023-04-15T09:47:03.749Z,5.13
2023-04-15T09:49:30.528Z,4.40
2023-04-15T09:52:05.520Z,4.68
2023-04-15T09:54:37.867Z,4.53
2023-04-15T09:57:10.539Z,5.38
2023-04-15T09:59:41.143Z,4.22
2023-04-15T10:02:08.052Z,5.40
2023-04-15T10:04:39.824Z,5.40
2023-04-15T10:07:11.854Z,4.88
2023-04-15T10:09:39.781Z,5.53
2023-04-15T10:12:06.618Z,5.20
2023-04-15T10:14:39.146Z,4.85
2023-04-15T10:17:07.919Z,4.85
2023-04-15T10:19:40.059Z,4.07
2023-04-15T10:22:09.262Z,4.35
2023-04-15T10:24:39.621Z,5.20
2023-04-15T10:27:07.062Z,4.45
2023-04-15T10:29:34.611Z,4.90
2023-04-15T10:32:02.287Z,3.60
2023-04-15T10:34:31.201Z,4.25
2023-04-15T10:37:04.097Z,4.07
2023-04-15T10:39:38.684Z,3.42
2023-04-15T10:42:13.260Z,3.95
2023-04-15T10:44:43.537Z,3.50
2023-04-15T10:47:12.770Z,3.58
2023-04-15T10:49:50.600Z,3.05
2023-04-15T10:52:22.908Z,2.25
2023-04-15T10:54:50.779Z,1.50
2023-04-15T10:57:23.300Z,1.30
2023-04-15T10:59:58.939Z,1.40
2023-04-15T11:02:55.747Z,1.85
2023-04-15T11:05:41.703Z,2.17
2023-04-15T11:08:09.913Z,1.95
2023-04-15T11:10:36.803Z,1.77
2023-04-15T11:13:18.125Z,2.40
2023-04-15T11:15:46.380Z,2.28
2023-04-15T11:20:54.889Z,1.90
2023-04-15T11:23:44.322Z,2.03
2023-04-15T11:26:12.454Z,1.92
2023-04-15T11:31:11.379Z,2.33
2023-04-15T11:33:44.603Z,2.25
2023-04-15T11:36:11.351Z,2.00
2023-04-15T11:38:38.193Z,1.98
2023-04-15T11:41:04.940Z,1.25
2023-04-15T11:43:32.510Z,2.15
2023-04-15T11:46:04.839Z,1.95
2023-04-15T11:48:36.465Z,1.83
2023-04-15T11:51:08.756Z,2.33
2023-04-15T11:53:42.971Z,2.28
2023-04-15T11:56:11.829Z,2.38
2023-04-15T11:58:40.042Z,2.60
2023-04-15T12:01:08.038Z,2.33
2023-04-15T12:03:44.156Z,2.65
2023-04-15T12:06:24.752Z,2.60
2023-04-15T12:09:00.719Z,2.33
2023-04-15T12:11:42.128Z,1.90
2023-04-15T12:14:31.222Z,2.42
2023-04-15T12:17:05.559Z,2.08
2023-04-15T12:22:06.583Z,1.35
2023-04-15T12:24:34.898Z,1.30
2023-04-15T12:29:30.817Z,1.50
2023-04-15T12:31:59.959Z,1.35
2023-04-15T12:34:32.152Z,1.35
2023-04-15T12:37:00.682Z,1.80
2023-04-15T12:39:30.847Z,1.45
2023-04-15T12:41:58.078Z,1.50
2023-04-15T12:44:24.656Z,1.55
2023-04-15T12:46:53.567Z,1.27
2023-04-15T12:49:24.558Z,1.40
2023-04-15T12:51:53.878Z,0.82
2023-04-15T12:54:21.603Z,1.05
2023-04-15T12:56:50.438Z,0.85
2023-04-15T12:59:18.646Z,0.90
2023-04-15T13:01:47.431Z,1.02
2023-04-15T13:04:15.062Z,0.60
2023-04-15T13:06:43.010Z,1.00
2023-04-15T13:09:10.140Z,1.00
2023-04-15T13:11:37.495Z,0.77
2023-04-15T13:14:06.378Z,0.88
2023-04-15T13:16:34.311Z,0.80
2023-04-15T13:19:04.097Z,0.60
2023-04-15T13:21:36.735Z,0.68
2023-04-15T13:24:04.926Z,1.80
2023-04-15T13:26:32.792Z,0.80
2023-04-15T13:28:59.852Z,0.90
2023-04-15T13:31:29.970Z,0.68
2023-04-15T13:33:57.591Z,0.70
2023-04-15T13:36:24.323Z,0.52
2023-04-15T13:38:51.707Z,0.80
2023-04-15T13:41:18.837Z,0.68
2023-04-15T13:43:45.725Z,0.70
2023-04-15T13:46:14.841Z,1.05
2023-04-15T13:48:41.811Z,1.00
2023-04-15T13:51:13.106Z,0.70
2023-04-15T13:53:39.990Z,0.90
2023-04-15T13:56:10.557Z,0.50
2023-04-15T13:58:38.030Z,0.93
2023-04-15T14:01:08.109Z,0.90
2023-04-15T14:03:36.238Z,0.85
2023-04-15T14:06:06.175Z,0.70
2023-04-15T14:08:36.526Z,0.73
2023-04-15T14:11:04.478Z,1.05
2023-04-15T14:13:31.458Z,0.80
2023-04-15T14:15:58.289Z,0.82
2023-04-15T14:18:29.870Z,1.02
2023-04-15T14:20:59.190Z,0.82
2023-04-15T14:23:26.075Z,0.77
2023-04-15T14:25:55.078Z,1.00
2023-04-15T14:28:25.166Z,1.10
2023-04-15T14:30:51.847Z,0.65
2023-04-15T14:33:19.051Z,1.00
2023-04-15T14:35:46.300Z,0.73
2023-04-15T14:38:13.673Z,0.80
2023-04-15T14:40:41.799Z,0.70
2023-04-15T14:43:09.024Z,0.68
2023-04-15T14:45:36.433Z,0.88
2023-04-15T14:48:04.241Z,0.90
2023-04-15T14:50:31.303Z,0.77
2023-04-15T14:52:59.110Z,0.55
2023-04-15T14:55:27.357Z,0.50
2023-04-15T14:57:54.137Z,0.52
2023-04-15T15:00:21.271Z,1.00
2023-04-15T15:02:50.377Z,1.25
2023-04-15T15:05:17.705Z,0.38
2023-04-15T15:07:44.581Z,0.80
2023-04-15T15:10:11.391Z,0.88
2023-04-15T15:12:38.241Z,1.20
2023-04-15T15:15:25.102Z,1.45
2023-04-15T15:17:55.215Z,0.90
2023-04-15T15:20:22.250Z,0.88
2023-04-15T15:22:49.210Z,0.90
2023-04-15T15:25:17.828Z,0.73
2023-04-15T15:27:44.784Z,0.60
2023-04-15T15:30:13.019Z,1.00
2023-04-15T15:32:42.018Z,0.65
2023-04-15T15:35:11.241Z,1.58
2023-04-15T15:37:38.463Z,1.15
2023-04-15T15:40:06.645Z,0.73
2023-04-15T15:42:34.075Z,0.80
2023-04-15T15:45:01.474Z,1.10
2023-04-15T15:47:36.500Z,0.98
2023-04-15T15:50:05.522Z,1.27
2023-04-15T15:52:34.175Z,2.63
2023-04-15T15:55:05.020Z,2.28
2023-04-15T15:57:32.646Z,1.65
2023-04-15T16:00:10.197Z,1.23
2023-04-15T16:03:05.056Z,1.02
2023-04-15T16:05:28.036Z,1.10
2023-04-15T16:07:54.965Z,0.77
2023-04-15T16:10:21.791Z,1.75
2023-04-15T16:12:48.416Z,1.23
2023-04-15T16:15:15.094Z,1.27
2023-04-15T16:17:42.046Z,1.20
2023-04-15T16:20:09.088Z,1.20
2023-04-15T16:22:36.160Z,1.33
2023-04-15T16:25:03.803Z,0.85
2023-04-15T16:27:30.520Z,1.23
2023-04-15T16:29:57.703Z,1.02
2023-04-15T16:32:25.559Z,0.95
2023-04-15T16:34:53.334Z,1.05
2023-04-15T16:37:21.228Z,0.88
2023-04-15T16:39:48.128Z,0.75
2023-04-15T16:42:16.501Z,0.88
2023-04-15T16:44:46.263Z,0.43
2023-04-15T16:47:13.337Z,2.03
2023-04-15T16:49:39.877Z,0.63
2023-04-15T16:52:07.257Z,0.77
2023-04-15T16:54:35.144Z,1.27
2023-04-15T16:57:02.591Z,0.95
2023-04-15T16:59:30.460Z,0.40
2023-04-15T17:01:57.464Z,0.80
2023-04-15T17:04:24.961Z,0.60
2023-04-15T17:06:51.808Z,0.82
2023-04-15T17:09:18.587Z,1.00
2023-04-15T17:11:45.863Z,1.10
2023-04-15T17:14:12.660Z,1.38
2023-04-15T17:16:40.181Z,0.80
2023-04-15T17:19:07.062Z,0.85
2023-04-15T17:21:34.772Z,0.60
2023-04-15T17:24:01.844Z,0.55
2023-04-15T17:26:28.681Z,0.60
2023-04-15T17:28:55.858Z,1.10
2023-04-15T17:31:23.989Z,0.80
2023-04-15T17:34:05.414Z,0.73
2023-04-15T17:36:36.018Z,1.13
2023-04-15T17:39:02.820Z,1.13
2023-04-15T17:41:29.961Z,0.65
2023-04-15T17:43:56.650Z,1.60
2023-04-15T17:46:23.339Z,1.05
2023-04-15T17:48:52.528Z,1.20
2023-04-15T17:51:19.344Z,1.35
2023-04-15T17:53:46.399Z,0.80
2023-04-15T17:56:13.704Z,0.80
2023-04-15T17:58:40.305Z,0.70
2023-04-15T18:01:07.902Z,0.93
2023-04-15T18:03:34.574Z,1.02
2023-04-15T18:06:01.560Z,2.00
2023-04-15T18:08:29.201Z,0.68
2023-04-15T18:10:56.472Z,0.90
2023-04-15T18:13:23.556Z,0.60
2023-04-15T18:15:51.438Z,0.90
2023-04-15T18:18:18.299Z,0.52
2023-04-15T18:20:44.891Z,0.98
2023-04-15T18:23:11.639Z,0.88
2023-04-15T18:25:43.684Z,1.30
2023-04-15T18:28:11.056Z,0.70
2023-04-15T18:30:37.797Z,0.45
2023-04-15T18:33:07.169Z,0.73
2023-04-15T18:35:35.196Z,1.33
2023-04-15T18:38:02.494Z,0.45
2023-04-15T18:40:30.467Z,0.70
2023-04-15T18:42:57.074Z,0.60
2023-04-15T18:45:23.990Z,0.70
2023-04-15T18:47:53.444Z,0.43
2023-04-15T18:50:20.459Z,0.60
2023-04-15T18:52:48.400Z,0.50
2023-04-15T18:55:17.101Z,0.35
2023-04-15T18:57:46.928Z,1.17
2023-04-15T19:00:17.482Z,0.68
2023-04-15T19:02:44.429Z,0.60
2023-04-15T19:05:14.343Z,0.73
2023-04-15T19:07:41.488Z,0.80
2023-04-15T19:10:08.738Z,0.60
2023-04-15T19:12:36.961Z,0.50
2023-04-15T19:15:07.446Z,0.88
2023-04-15T19:17:35.312Z,0.75
2023-04-15T19:20:02.440Z,1.00
2023-04-15T19:22:29.895Z,0.65
2023-04-15T19:24:56.840Z,0.75
2023-04-15T19:27:29.435Z,0.55
2023-04-15T19:29:56.397Z,0.57
2023-04-15T19:32:23.120Z,1.13
2023-04-15T19:34:50.822Z,0.68
2023-04-15T19:37:18.004Z,2.33
2023-04-15T19:39:44.930Z,0.77
2023-04-15T19:42:11.855Z,0.88
2023-04-15T19:44:43.006Z,1.10
2023-04-15T19:47:10.709Z,1.25
2023-04-15T19:49:38.274Z,0.77
2023-04-15T19:52:10.468Z,0.70
2023-04-15T19:54:39.671Z,0.75
2023-04-15T19:57:14.119Z,1.33
2023-04-15T19:59:41.348Z,0.88
2023-04-15T20:02:08.222Z,0.90
2023-04-15T20:04:35.226Z,1.55
2023-04-15T20:07:02.601Z,1.20
2023-04-15T20:09:31.828Z,0.73
2023-04-15T20:12:09.898Z,1.10
2023-04-15T20:17:11.677Z,1.25
2023-04-15T20:19:38.234Z,1.13
2023-04-15T20:22:05.449Z,0.95
2023-04-15T20:24:33.297Z,2.25
2023-04-15T20:26:59.729Z,0.47
2023-04-15T20:29:27.814Z,0.70
2023-04-15T20:31:54.341Z,1.30
2023-04-15T20:34:21.074Z,1.20
2023-04-15T20:36:47.969Z,1.27
2023-04-15T20:39:14.639Z,0.93
2023-04-15T20:41:41.191Z,1.80
2023-04-15T20:44:07.902Z,1.08
2023-04-15T20:46:34.673Z,1.05
2023-04-15T20:49:01.227Z,0.85
2023-04-15T20:51:28.017Z,0.80
2023-04-15T20:53:55.771Z,0.60
2023-04-15T20:56:22.350Z,1.15
2023-04-15T20:58:49.103Z,1.88
2023-04-15T21:01:16.810Z,0.90
2023-04-15T21:03:43.911Z,0.85
2023-04-15T21:06:10.579Z,1.42
2023-04-15T21:08:36.985Z,0.65
2023-04-15T21:11:03.553Z,0.90
2023-04-15T21:13:30.543Z,0.75
2023-04-15T21:15:57.091Z,1.88
2023-04-15T21:18:24.046Z,1.85
2023-04-15T21:21:02.019Z,1.30
2023-04-15T21:23:29.836Z,1.23
2023-04-15T21:25:58.506Z,0.88
2023-04-15T21:28:28.566Z,1.30
2023-04-15T21:30:56.303Z,1.05
2023-04-15T21:33:23.187Z,1.38
2023-04-15T21:35:49.714Z,1.42
2023-04-15T21:38:16.417Z,1.00
2023-04-15T21:40:42.975Z,1.23
2023-04-15T21:43:10.142Z,1.45
2023-04-15T21:45:39.403Z,1.58
2023-04-15T21:48:08.286Z,1.50
2023-04-15T21:50:38.372Z,1.15
2023-04-15T21:53:07.716Z,1.52
2023-04-15T21:55:34.627Z,1.30
2023-04-15T21:58:01.514Z,1.50
2023-04-15T22:00:28.317Z,1.60
2023-04-15T22:02:55.018Z,1.33
2023-04-15T22:05:22.210Z,2.15
2023-04-15T22:07:49.031Z,2.10
2023-04-15T22:10:16.115Z,1.60
2023-04-15T22:12:43.052Z,1.60
2023-04-15T22:15:09.913Z,2.97
2023-04-15T22:17:36.498Z,1.80
2023-04-15T22:20:03.727Z,1.38
2023-04-15T22:22:43.330Z,1.88
2023-04-15T22:27:38.645Z,1.67
2023-04-15T22:30:06.108Z,2.00
2023-04-15T22:32:33.236Z,2.00
2023-04-15T22:35:01.551Z,1.55
2023-04-15T22:37:30.907Z,1.45
2023-04-15T22:39:57.870Z,1.30
2023-04-15T22:42:24.667Z,2.03
2023-04-15T22:44:51.567Z,2.42
2023-04-15T22:47:20.791Z,1.70
2023-04-15T22:49:47.297Z,2.25
2023-04-15T22:52:23.315Z,2.22
2023-04-15T22:54:56.296Z,1.92
2023-04-15T22:57:22.929Z,1.73
2023-04-15T22:59:49.783Z,1.85
2023-04-15T23:02:17.416Z,1.83
2023-04-15T23:04:44.984Z,1.95
2023-04-15T23:07:11.825Z,1.92
2023-04-15T23:09:39.265Z,2.58
2023-04-15T23:12:07.028Z,2.50
2023-04-15T23:14:33.653Z,1.75
2023-04-15T23:17:00.833Z,2.17
2023-04-15T23:19:27.544Z,2.13
2023-04-15T23:21:54.348Z,2.08
2023-04-15T23:24:21.634Z,2.03
2023-04-15T23:26:48.461Z,1.52
2023-04-15T23:29:15.441Z,2.20
2023-04-15T23:31:42.694Z,1.88
2023-04-15T23:34:10.334Z,1.33
2023-04-15T23:36:39.157Z,1.30
2023-04-15T23:39:05.736Z,1.70
2023-04-15T23:41:32.305Z,2.33
2023-04-15T23:43:59.076Z,1.35
2023-04-15T23:46:26.070Z,1.30
2023-04-15T23:48:54.876Z,1.00
2023-04-15T23:51:21.397Z,1.02
2023-04-15T23:53:49.000Z,0.98
2023-04-15T23:56:16.023Z,1.00
2023-04-15T23:58:43.010Z,1.00
